• Join FlightAware (Why Join?)
  • Login
  • US Flag 
04:16PM EDT


 

Airport Tracker/Info


-or-


 

Live Flight TrackerFlight Track Log ✈ N771PA ✈ 28-Sep-2013 ✈ KLBL - KICT

Flight Track Log - Related Links

Times and Time Zones

All times are in EDT time to prevent confusion due to time zone crossing. See the N771PA flight status page for this flight to view local times or setup timezone preferences in your user account.

Time Position Orientation Groundspeed Altitude Reporting Facility
EDT Latitude Longitude Course Direction KTS MPH feet Rate Location/Type
01:37PM 37.0856 -100.8731 78° East 144 166 6,100  Level Kansas City Center
01:38PM 37.0942 -100.8222 78° East 151 174 7,400 1,260 Climbing Kansas City Center
01:39PM 37.1056 -100.7739 74° East 152 175 8,800 1,260 Climbing Kansas City Center
01:40PM 37.1189 -100.7136 74° East 159 183 10,100 1,260 Climbing Kansas City Center
01:41PM 37.1261 -100.6592 81° East 164 189 11,500 1,140 Climbing Kansas City Center
01:42PM 37.1361 -100.5969 79° East 164 189 12,500 1,080 Climbing Kansas City Center
01:43PM 37.1450 -100.5389 79° East 173 199 13,800 1,140 Climbing Kansas City Center
01:44PM 37.1544 -100.4819 78° East 175 201 14,900 960 Climbing Kansas City Center
01:45PM 37.1669 -100.4111 77° East 183 211 15,800 780 Climbing Kansas City Center
01:46PM 37.1786 -100.3481 77° East 190 219 16,500 660 Climbing Kansas City Center
01:47PM 37.1928 -100.2708 77° East 200 230 17,200 540 Climbing Kansas City Center
01:48PM 37.2042 -100.2028 78° East 205 236 17,700 660 Climbing Kansas City Center
01:49PM 37.2206 -100.1222 76° East 212 244 18,600 600 Climbing Kansas City Center
01:50PM 37.2331 -100.0508 78° East 215 247 19,000 180 Climbing Kansas City Center
01:51PM 37.2453 -99.9706 79° East 233 268 19,000  Level Kansas City Center
01:52PM 37.2639 -99.8692 77° East 260 299 19,000  Level Kansas City Center
01:53PM 37.2783 -99.7806 78° East 268 308 19,000  Level Kansas City Center
01:54PM 37.2961 -99.6758 78° East 273 314 19,000  Level Kansas City Center
01:55PM 37.3125 -99.5872 77° East 273 314 19,000  Level Kansas City Center
01:56PM 37.3300 -99.4831 78° East 274 315 19,000  Level Kansas City Center
01:57PM 37.3461 -99.3925 77° East 279 321 19,000  Level Kansas City Center
01:58PM 37.3614 -99.2986 78° East 275 316 19,000  Level Kansas City Center
01:59PM 37.3789 -99.2056 77° East 275 316 19,000  Level Kansas City Center
02:00PM 37.3919 -99.1111 80° East 273 314 19,000  Level Kansas City Center
02:01PM 37.4053 -99.0172 80° East 273 314 19,000  Level Kansas City Center
02:02PM 37.4219 -98.9247 77° East 273 314 19,000  Level Kansas City Center
02:03PM 37.4347 -98.8314 80° East 271 312 19,000  Level Kansas City Center
02:04PM 37.4517 -98.7192 79° East 272 313 19,000 -60 Level Kansas City Center
02:05PM 37.4681 -98.6264 77° East 272 313 18,900 -480 Descending Kansas City Center
02:06PM 37.4714 -98.5919 83° East 274 315 18,400 -1,500 Descending Kansas City Center
02:06PM 37.4828 -98.5267 78° East 283 326 17,400 -1,560 Descending Kansas City Center
02:07PM 37.5003 -98.4194 78° East 321 369 15,900 -1,500 Descending Kansas City Center
02:07PM 37.5000 -98.4178 102° East 308 354 15,900 -1,020 Level Kansas City Center
02:09PM 37.5175 -98.3142 78° East 307 353 14,800 -1,260 Descending Kansas City Center
02:09PM 37.5283 -98.2206 82° East 296 341 13,600 -1,260 Descending Kansas City Center
02:10PM 37.5308 -98.2125 69° East 299 344 13,500 -1,380 Descending Kansas City Center
02:10PM 37.5475 -98.1097 78° East 284 327 12,100 -1,320 Descending Kansas City Center
02:11PM 37.5467 -98.1156 260° West 288 331 12,200 -1,260 Climbing Kansas City Center
02:12PM 37.5614 -98.0075 80° East 273 314 10,700 -1,500 Descending Kansas City Center
02:12PM 37.5636 -98.0014 65° Northeast 282 325 10,700 -1,380 Level Kansas City Center
02:12PM 37.5742 -97.9211 81° East 265 305 9,500 -1,320 Descending Kansas City Center
02:13PM 37.5783 -97.9108 63° Northeast 275 316 9,400 -1,560 Descending Kansas City Center
02:13PM 37.5875 -97.8400 81° East 257 296 8,100 -1,500 Descending Kansas City Center
02:14PM 37.5919 -97.8239 71° East 265 305 7,900 -1,200 Descending Kansas City Center
02:15PM 37.6017 -97.7414 82° East 252 290 6,600 -1,380 Descending Kansas City Center
02:16PM 37.6022 -97.6611 89° East 239 275 5,100 -1,620 Descending Kansas City Center
02:16PM 37.6019 -97.5947 90° East 228 262 3,800 -1,500 Descending Kansas City Center
02:17PM 37.6019 -97.5822 90° East 232 267 3,600 -840 Descending Kansas City Center
02:18PM 37.6050 -97.5153 87° East 212 244 2,900 -780 Descending Kansas City Center
02:18PM 37.6058 -97.5069 83° East 224 258 2,800 -540 Descending Kansas City Center
02:19PM 37.6131 -97.4478 81° East 143 165 2,300 -720 Descending Kansas City Center
02:19PM 37.6164 -97.4417 55° Northeast 178 205 2,100 -660 Descending Kansas City Center
02:20PM 37.6436 -97.4233 28° Northeast 156 180 1,600 -540 Descending Kansas City Center
02:22PM 37.6499 -97.4331 309° West  Level Estimated
02:29PM 37.6499 -97.4331 38° Northeast  Level Estimated
02:30PM 37.6499 -97.4331 38° Northeast  Level Estimated
02:31PM 37.6499 -97.4331 38° Northeast  Level Estimated